sensor_id;sensor_type;location;lat;lon;timestamp;P1;durP1;ratioP1;P2;durP2;ratioP2
42104;SDS011;61464;51.472;5.712;2022-11-20T04:05:36;28.02;;;13.82;;
42104;SDS011;61464;51.472;5.712;2022-11-20T04:09:02;26.38;;;14.45;;
42104;SDS011;61464;51.472;5.712;2022-11-20T04:12:02;27.80;;;14.75;;
42104;SDS011;61464;51.472;5.712;2022-11-20T04:14:35;27.25;;;14.32;;
42104;SDS011;61464;51.472;5.712;2022-11-20T04:17:21;31.13;;;15.02;;
42104;SDS011;61464;51.472;5.712;2022-11-20T04:20:32;25.92;;;14.23;;
42104;SDS011;61464;51.472;5.712;2022-11-20T04:23:18;30.23;;;15.75;;
42104;SDS011;61464;51.472;5.712;2022-11-20T04:26:00;26.60;;;14.07;;
42104;SDS011;61464;51.472;5.712;2022-11-20T04:28:31;28.30;;;15.40;;
42104;SDS011;61464;51.472;5.712;2022-11-20T04:31:45;29.20;;;15.18;;
42104;SDS011;61464;51.472;5.712;2022-11-20T04:34:37;30.25;;;15.35;;
42104;SDS011;61464;51.472;5.712;2022-11-20T04:37:09;37.63;;;16.38;;
42104;SDS011;61464;51.472;5.712;2022-11-20T04:39:53;29.40;;;15.18;;
42104;SDS011;61464;51.472;5.712;2022-11-20T04:43:13;31.38;;;14.90;;
42104;SDS011;61464;51.472;5.712;2022-11-20T04:46:38;34.22;;;15.48;;
42104;SDS011;61464;51.472;5.712;2022-11-20T04:49:10;31.60;;;15.23;;
42104;SDS011;61464;51.472;5.712;2022-11-20T04:51:47;32.90;;;16.60;;
42104;SDS011;61464;51.472;5.712;2022-11-20T04:54:46;31.05;;;15.98;;
42104;SDS011;61464;51.472;5.712;2022-11-20T04:57:25;33.00;;;15.40;;
42104;SDS011;61464;51.472;5.712;2022-11-20T05:00:33;30.35;;;15.02;;
42104;SDS011;61464;51.472;5.712;2022-11-20T05:03:16;30.52;;;15.82;;
42104;SDS011;61464;51.472;5.712;2022-11-20T05:06:00;29.23;;;15.63;;
42104;SDS011;61464;51.472;5.712;2022-11-20T05:08:51;30.88;;;14.13;;
42104;SDS011;61464;51.472;5.712;2022-11-20T05:11:51;28.45;;;14.32;;
42104;SDS011;61464;51.472;5.712;2022-11-20T05:15:05;28.95;;;14.93;;
42104;SDS011;61464;51.472;5.712;2022-11-20T05:17:59;26.50;;;14.13;;
42104;SDS011;61464;51.472;5.712;2022-11-20T05:20:30;26.08;;;13.68;;
42104;SDS011;61464;51.472;5.712;2022-11-20T05:23:22;26.70;;;14.95;;
42104;SDS011;61464;51.472;5.712;2022-11-20T05:26:19;30.85;;;15.48;;
42104;SDS011;61464;51.472;5.712;2022-11-20T05:29:02;27.25;;;14.20;;
42104;SDS011;61464;51.472;5.712;2022-11-20T05:31:49;30.63;;;15.13;;
42104;SDS011;61464;51.472;5.712;2022-11-20T05:34:34;32.80;;;16.15;;
42104;SDS011;61464;51.472;5.712;2022-11-20T05:37:14;34.40;;;16.15;;
42104;SDS011;61464;51.472;5.712;2022-11-20T05:39:51;31.85;;;15.55;;
42104;SDS011;61464;51.472;5.712;2022-11-20T05:42:30;30.45;;;15.18;;
42104;SDS011;61464;51.472;5.712;2022-11-20T05:45:08;27.92;;;14.38;;
42104;SDS011;61464;51.472;5.712;2022-11-20T05:48:01;30.67;;;14.68;;
42104;SDS011;61464;51.472;5.712;2022-11-20T05:51:02;28.02;;;15.50;;
42104;SDS011;61464;51.472;5.712;2022-11-20T05:53:46;32.38;;;15.25;;
42104;SDS011;61464;51.472;5.712;2022-11-20T05:56:38;30.05;;;15.15;;
42104;SDS011;61464;51.472;5.712;2022-11-20T05:59:27;28.73;;;15.05;;
42104;SDS011;61464;51.472;5.712;2022-11-20T06:02:02;28.17;;;14.95;;
42104;SDS011;61464;51.472;5.712;2022-11-20T06:04:30;28.65;;;15.80;;
42104;SDS011;61464;51.472;5.712;2022-11-20T06:07:24;29.08;;;15.30;;
42104;SDS011;61464;51.472;5.712;2022-11-20T06:09:59;30.73;;;14.98;;
42104;SDS011;61464;51.472;5.712;2022-11-20T06:12:41;27.45;;;14.90;;
42104;SDS011;61464;51.472;5.712;2022-11-20T06:15:30;28.83;;;15.55;;
42104;SDS011;61464;51.472;5.712;2022-11-20T06:18:35;30.48;;;14.48;;
42104;SDS011;61464;51.472;5.712;2022-11-20T06:21:22;29.15;;;14.63;;
42104;SDS011;61464;51.472;5.712;2022-11-20T06:24:39;28.70;;;14.90;;
42104;SDS011;61464;51.472;5.712;2022-11-20T06:27:32;27.42;;;14.82;;
42104;SDS011;61464;51.472;5.712;2022-11-20T06:30:11;28.67;;;14.40;;
42104;SDS011;61464;51.472;5.712;2022-11-20T06:33:13;26.60;;;13.43;;
42104;SDS011;61464;51.472;5.712;2022-11-20T06:35:42;24.98;;;14.02;;
42104;SDS011;61464;51.472;5.712;2022-11-20T06:38:20;30.50;;;14.43;;
42104;SDS011;61464;51.472;5.712;2022-11-20T06:41:42;29.42;;;14.82;;
42104;SDS011;61464;51.472;5.712;2022-11-20T06:44:34;28.92;;;15.15;;
42104;SDS011;61464;51.472;5.712;2022-11-20T06:47:20;26.58;;;14.32;;
42104;SDS011;61464;51.472;5.712;2022-11-20T06:50:13;27.20;;;14.43;;
42104;SDS011;61464;51.472;5.712;2022-11-20T06:53:41;25.92;;;13.45;;
42104;SDS011;61464;51.472;5.712;2022-11-20T07:00:22;24.38;;;13.60;;
42104;SDS011;61464;51.472;5.712;2022-11-20T07:06:19;28.40;;;15.40;;
42104;SDS011;61464;51.472;5.712;2022-11-20T07:08:54;25.48;;;13.85;;
42104;SDS011;61464;51.472;5.712;2022-11-20T07:11:36;29.17;;;13.88;;
42104;SDS011;61464;51.472;5.712;2022-11-20T07:23:07;25.88;;;13.75;;
42104;SDS011;61464;51.472;5.712;2022-11-20T07:25:46;26.17;;;13.70;;
42104;SDS011;61464;51.472;5.712;2022-11-20T07:28:40;24.27;;;13.77;;
42104;SDS011;61464;51.472;5.712;2022-11-20T07:31:36;26.33;;;13.98;;
42104;SDS011;61464;51.472;5.712;2022-11-20T07:34:44;25.98;;;14.23;;
42104;SDS011;61464;51.472;5.712;2022-11-20T07:41:34;24.35;;;13.88;;
42104;SDS011;61464;51.472;5.712;2022-11-20T07:44:48;25.08;;;13.55;;
42104;SDS011;61464;51.472;5.712;2022-11-20T07:52:06;26.85;;;14.05;;
42104;SDS011;61464;51.472;5.712;2022-11-20T07:54:59;24.90;;;13.10;;
42104;SDS011;61464;51.472;5.712;2022-11-20T07:59:05;27.75;;;14.43;;
42104;SDS011;61464;51.472;5.712;2022-11-20T08:15:22;27.42;;;14.55;;
42104;SDS011;61464;51.472;5.712;2022-11-20T08:21:20;26.85;;;15.63;;
42104;SDS011;61464;51.472;5.712;2022-11-20T08:24:09;23.73;;;14.07;;
42104;SDS011;61464;51.472;5.712;2022-11-20T08:27:28;25.55;;;13.95;;
42104;SDS011;61464;51.472;5.712;2022-11-20T08:31:04;27.50;;;15.07;;
42104;SDS011;61464;51.472;5.712;2022-11-20T08:33:32;26.17;;;14.50;;
42104;SDS011;61464;51.472;5.712;2022-11-20T08:36:47;34.70;;;14.90;;
42104;SDS011;61464;51.472;5.712;2022-11-20T08:40:23;26.65;;;14.93;;
42104;SDS011;61464;51.472;5.712;2022-11-20T08:51:08;26.50;;;14.55;;
42104;SDS011;61464;51.472;5.712;2022-11-20T08:54:12;29.13;;;14.02;;
42104;SDS011;61464;51.472;5.712;2022-11-20T08:56:45;31.05;;;15.10;;
42104;SDS011;61464;51.472;5.712;2022-11-20T08:59:33;33.70;;;16.17;;
42104;SDS011;61464;51.472;5.712;2022-11-20T09:02:01;29.48;;;14.75;;
42104;SDS011;61464;51.472;5.712;2022-11-20T09:04:38;25.13;;;14.35;;
42104;SDS011;61464;51.472;5.712;2022-11-20T09:07:13;29.38;;;15.77;;
42104;SDS011;61464;51.472;5.712;2022-11-20T09:09:45;29.63;;;15.43;;
42104;SDS011;61464;51.472;5.712;2022-11-20T09:13:03;29.60;;;16.23;;
42104;SDS011;61464;51.472;5.712;2022-11-20T09:16:14;28.33;;;15.30;;
42104;SDS011;61464;51.472;5.712;2022-11-20T09:23:35;29.17;;;16.23;;
42104;SDS011;61464;51.472;5.712;2022-11-20T09:26:05;36.88;;;17.15;;
42104;SDS011;61464;51.472;5.712;2022-11-20T09:29:08;30.95;;;17.13;;
42104;SDS011;61464;51.472;5.712;2022-11-20T09:32:53;32.38;;;16.88;;
42104;SDS011;61464;51.472;5.712;2022-11-20T09:35:42;34.90;;;18.13;;
42104;SDS011;61464;51.472;5.712;2022-11-20T09:53:36;35.72;;;19.45;;
42104;SDS011;61464;51.472;5.712;2022-11-20T09:59:58;35.42;;;17.70;;
42104;SDS011;61464;51.472;5.712;2022-11-20T14:42:18;61.78;;;23.40;;
42104;SDS011;61464;51.472;5.712;2022-11-20T14:59:37;69.20;;;24.80;;
42104;SDS011;61464;51.472;5.712;2022-11-20T15:02:09;65.28;;;25.05;;
42104;SDS011;61464;51.472;5.712;2022-11-20T15:04:47;64.90;;;26.55;;
42104;SDS011;61464;51.472;5.712;2022-11-20T15:07:32;70.82;;;24.73;;
42104;SDS011;61464;51.472;5.712;2022-11-20T15:10:20;64.63;;;24.52;;
42104;SDS011;61464;51.472;5.712;2022-11-20T15:13:03;72.25;;;26.60;;
42104;SDS011;61464;51.472;5.712;2022-11-20T15:18:21;80.90;;;30.85;;
42104;SDS011;61464;51.472;5.712;2022-11-20T15:21:03;72.60;;;24.90;;
42104;SDS011;61464;51.472;5.712;2022-11-20T15:23:35;70.25;;;24.90;;
42104;SDS011;61464;51.472;5.712;2022-11-20T15:26:03;71.85;;;24.48;;
42104;SDS011;61464;51.472;5.712;2022-11-20T15:28:32;73.85;;;27.23;;
42104;SDS011;61464;51.472;5.712;2022-11-20T15:31:02;69.35;;;27.02;;
42104;SDS011;61464;51.472;5.712;2022-11-20T15:33:29;78.13;;;29.73;;
42104;SDS011;61464;51.472;5.712;2022-11-20T15:35:57;88.75;;;29.58;;
42104;SDS011;61464;51.472;5.712;2022-11-20T15:38:27;80.78;;;27.45;;
42104;SDS011;61464;51.472;5.712;2022-11-20T15:40:55;76.43;;;28.05;;
42104;SDS011;61464;51.472;5.712;2022-11-20T15:43:24;88.35;;;27.38;;
42104;SDS011;61464;51.472;5.712;2022-11-20T15:46:00;75.63;;;25.60;;
42104;SDS011;61464;51.472;5.712;2022-11-20T15:48:43;98.30;;;35.25;;
42104;SDS011;61464;51.472;5.712;2022-11-20T15:53:41;81.07;;;28.17;;
42104;SDS011;61464;51.472;5.712;2022-11-20T15:56:28;79.57;;;28.08;;
42104;SDS011;61464;51.472;5.712;2022-11-20T15:58:54;78.63;;;28.48;;
42104;SDS011;61464;51.472;5.712;2022-11-20T16:01:22;79.88;;;27.33;;
42104;SDS011;61464;51.472;5.712;2022-11-20T16:03:49;77.43;;;28.48;;
42104;SDS011;61464;51.472;5.712;2022-11-20T16:06:17;69.85;;;27.77;;
42104;SDS011;61464;51.472;5.712;2022-11-20T16:08:53;74.70;;;26.60;;
42104;SDS011;61464;51.472;5.712;2022-11-20T16:11:19;72.88;;;26.98;;
42104;SDS011;61464;51.472;5.712;2022-11-20T16:13:45;76.40;;;26.30;;
42104;SDS011;61464;51.472;5.712;2022-11-20T16:16:34;77.18;;;26.27;;
42104;SDS011;61464;51.472;5.712;2022-11-20T16:19:27;70.22;;;26.52;;
42104;SDS011;61464;51.472;5.712;2022-11-20T16:21:57;85.43;;;27.75;;
42104;SDS011;61464;51.472;5.712;2022-11-20T16:24:55;80.72;;;26.38;;
42104;SDS011;61464;51.472;5.712;2022-11-20T16:30:42;77.32;;;26.02;;
42104;SDS011;61464;51.472;5.712;2022-11-20T16:33:15;80.28;;;29.40;;
42104;SDS011;61464;51.472;5.712;2022-11-20T16:35:43;84.25;;;30.02;;
42104;SDS011;61464;51.472;5.712;2022-11-20T16:38:11;70.35;;;25.95;;
42104;SDS011;61464;51.472;5.712;2022-11-20T16:40:37;71.72;;;25.35;;
42104;SDS011;61464;51.472;5.712;2022-11-20T16:43:28;74.57;;;24.02;;
42104;SDS011;61464;51.472;5.712;2022-11-20T16:45:54;68.38;;;26.20;;
42104;SDS011;61464;51.472;5.712;2022-11-20T16:48:24;72.30;;;24.65;;
42104;SDS011;61464;51.472;5.712;2022-11-20T16:50:51;69.22;;;24.63;;
42104;SDS011;61464;51.472;5.712;2022-11-20T16:53:36;72.18;;;23.58;;
42104;SDS011;61464;51.472;5.712;2022-11-20T16:56:25;63.20;;;22.65;;
42104;SDS011;61464;51.472;5.712;2022-11-20T16:59:10;65.43;;;24.52;;
42104;SDS011;61464;51.472;5.712;2022-11-20T17:02:02;59.30;;;22.88;;
42104;SDS011;61464;51.472;5.712;2022-11-20T17:07:45;55.15;;;22.00;;
42104;SDS011;61464;51.472;5.712;2022-11-20T17:53:22;28.43;;;15.57;;
42104;SDS011;61464;51.472;5.712;2022-11-20T18:03:11;28.33;;;16.60;;
42104;SDS011;61464;51.472;5.712;2022-11-20T18:08:58;25.55;;;15.13;;
42104;SDS011;61464;51.472;5.712;2022-11-20T18:11:35;28.52;;;15.02;;
42104;SDS011;61464;51.472;5.712;2022-11-20T18:14:04;24.77;;;14.05;;
42104;SDS011;61464;51.472;5.712;2022-11-20T18:17:31;29.80;;;13.63;;
42104;SDS011;61464;51.472;5.712;2022-11-20T18:20:55;30.63;;;15.07;;
42104;SDS011;61464;51.472;5.712;2022-11-20T18:24:20;24.80;;;13.65;;
42104;SDS011;61464;51.472;5.712;2022-11-20T18:27:45;27.75;;;13.02;;
42104;SDS011;61464;51.472;5.712;2022-11-20T18:31:04;28.45;;;12.05;;
42104;SDS011;61464;51.472;5.712;2022-11-20T18:34:47;21.90;;;12.48;;
42104;SDS011;61464;51.472;5.712;2022-11-20T18:38:25;25.63;;;10.05;;
42104;SDS011;61464;51.472;5.712;2022-11-20T18:41:59;21.20;;;10.48;;
42104;SDS011;61464;51.472;5.712;2022-11-20T18:45:41;24.48;;;10.20;;
42104;SDS011;61464;51.472;5.712;2022-11-20T18:49:08;24.60;;;10.45;;
42104;SDS011;61464;51.472;5.712;2022-11-20T18:52:36;24.27;;;11.18;;
42104;SDS011;61464;51.472;5.712;2022-11-20T18:56:16;21.48;;;10.35;;
42104;SDS011;61464;51.472;5.712;2022-11-20T18:59:45;20.25;;;10.65;;
42104;SDS011;61464;51.472;5.712;2022-11-20T19:03:19;22.50;;;10.95;;
42104;SDS011;61464;51.472;5.712;2022-11-20T19:06:54;21.70;;;11.20;;
42104;SDS011;61464;51.472;5.712;2022-11-20T19:10:21;26.65;;;12.23;;
42104;SDS011;61464;51.472;5.712;2022-11-20T19:13:45;28.88;;;11.90;;
42104;SDS011;61464;51.472;5.712;2022-11-20T19:25:15;26.70;;;12.45;;
42104;SDS011;61464;51.472;5.712;2022-11-20T19:28:44;20.85;;;12.25;;
42104;SDS011;61464;51.472;5.712;2022-11-20T19:32:23;26.38;;;13.00;;
42104;SDS011;61464;51.472;5.712;2022-11-20T19:40:00;25.90;;;13.73;;
42104;SDS011;61464;51.472;5.712;2022-11-20T19:46:54;32.33;;;14.55;;
42104;SDS011;61464;51.472;5.712;2022-11-20T19:50:22;26.73;;;14.00;;
42104;SDS011;61464;51.472;5.712;2022-11-20T19:54:10;28.92;;;14.57;;
42104;SDS011;61464;51.472;5.712;2022-11-20T19:57:49;31.63;;;14.70;;
42104;SDS011;61464;51.472;5.712;2022-11-20T20:05:01;30.05;;;15.68;;
42104;SDS011;61464;51.472;5.712;2022-11-20T20:12:21;36.33;;;17.38;;
42104;SDS011;61464;51.472;5.712;2022-11-20T20:15:53;36.30;;;16.77;;
42104;SDS011;61464;51.472;5.712;2022-11-20T20:19:28;34.00;;;16.98;;
42104;SDS011;61464;51.472;5.712;2022-11-20T20:22:59;33.72;;;16.90;;
42104;SDS011;61464;51.472;5.712;2022-11-20T20:26:29;30.95;;;17.05;;
42104;SDS011;61464;51.472;5.712;2022-11-20T20:33:39;32.80;;;18.17;;
42104;SDS011;61464;51.472;5.712;2022-11-20T20:58:57;45.35;;;18.40;;
42104;SDS011;61464;51.472;5.712;2022-11-20T21:02:22;39.65;;;19.65;;
42104;SDS011;61464;51.472;5.712;2022-11-20T21:10:35;43.78;;;21.25;;
42104;SDS011;61464;51.472;5.712;2022-11-20T21:14:09;40.92;;;21.25;;
42104;SDS011;61464;51.472;5.712;2022-11-20T21:17:42;45.05;;;20.67;;
42104;SDS011;61464;51.472;5.712;2022-11-20T21:21:16;45.90;;;24.55;;
42104;SDS011;61464;51.472;5.712;2022-11-20T21:29:30;54.25;;;26.08;;
42104;SDS011;61464;51.472;5.712;2022-11-20T22:53:17;46.90;;;12.20;;
42104;SDS011;61464;51.472;5.712;2022-11-20T22:56:48;35.78;;;9.18;;
42104;SDS011;61464;51.472;5.712;2022-11-20T23:00:12;30.52;;;7.55;;
42104;SDS011;61464;51.472;5.712;2022-11-20T23:03:39;30.15;;;6.80;;
42104;SDS011;61464;51.472;5.712;2022-11-20T23:07:06;25.15;;;5.88;;
42104;SDS011;61464;51.472;5.712;2022-11-20T23:11:02;27.95;;;5.95;;
42104;SDS011;61464;51.472;5.712;2022-11-20T23:14:39;31.30;;;6.55;;
42104;SDS011;61464;51.472;5.712;2022-11-20T23:18:04;24.38;;;6.07;;
42104;SDS011;61464;51.472;5.712;2022-11-20T23:21:45;24.65;;;5.50;;
42104;SDS011;61464;51.472;5.712;2022-11-20T23:25:38;16.85;;;5.88;;
42104;SDS011;61464;51.472;5.712;2022-11-20T23:29:12;31.08;;;5.72;;
42104;SDS011;61464;51.472;5.712;2022-11-20T23:36:16;34.05;;;5.70;;
42104;SDS011;61464;51.472;5.712;2022-11-20T23:39:41;16.50;;;4.75;;
42104;SDS011;61464;51.472;5.712;2022-11-20T23:43:09;26.50;;;4.60;;
42104;SDS011;61464;51.472;5.712;2022-11-20T23:46:34;13.70;;;3.83;;
42104;SDS011;61464;51.472;5.712;2022-11-20T23:49:58;11.80;;;2.47;;
42104;SDS011;61464;51.472;5.712;2022-11-20T23:53:23;10.18;;;2.25;;
42104;SDS011;61464;51.472;5.712;2022-11-20T23:56:48;10.65;;;2.20;;
